Terminal Aerodrome Forecast
Issued by NWS Wakefield, VA

Home | Current Version | Previous Version | Text Only | Print | Product List | Glossary On
Versions: 1 2 3 4 5 6 7 8 9 10 11 12 13
000
FTUS41 KAKQ 211734
TAFSBY
TAF
KSBY 211734Z 2118/2218 31007KT P6SM FEW045 SCT200
     FM212000 25007KT P6SM SCT060
     FM220100 VRB03KT P6SM VCSH SCT050 SCT120
     FM220600 00000KT P6SM BKN100=

USA.gov is the U.S. government's official web portal to all federal, state and local government web resources and services.